Portada
METAR-TAF:

METAR-TAF

Aeroports :

Londres Biggin Hill, Anglaterra

latitud: 51-19N, longitud: 000-02E, altitud: 183 m

Observació

L'informe es va fer fa 11 minuts, a les 09:50 UTC
Vent 8 kt del Oest/Sud-Oest, variant entre Sud/Sud-Oest i Oest
Temperatura 18°C
Humitat 64%
Pressió 1026 hPa
Visibilitat 10 km o més
sense núvols per sota de 1500 mi sense presència de cumulonimbus.

METAR: EGKB 220950Z 24008KT 200V270 CAVOK 18/11 Q1026

Hora: 11:01 (10:01 UTC)

Pronòstic

L'informe es va fer fa 1 hora i 59 minuts, a les 08:02 UTC
Pronòstic vàlid del 22 a les 09 UTC al 22 a les 18 UTC
Vent 9 kt del Oest/Sud-Oest
Visibilitat 10 km o més
Escasses núvols a una alçada de 4500 ft

TAF: EGKB 220802Z 2209/2218 24009KT 9999 FEW045

Observacions i pronòstics meteorològics de més de 4000 aeroports (METAR i TAF).

Les estacions disponibles són els punts grocs i vermells al mapa.

Posi el ratolí al punt desitjat per veure el nom de l'estació.

Feu clic per veure les observacions i els pronòstics meteorològics.

Per canviar el mapa: feu clic els botons verds amb una creu de color negre per apropar; al botó verd amb un guió per allunyar la imatge; o en les fletxes verdes per a mapes adjacents.


METAR-TAF: